Sea Voyager — V7QU2 — position and weather

sailwx.info

Track history (hours):
 
Tides and Currents Weather Stations Pressure Air Temp Water Temp Dewpoint Dewpoint Depression Visibility Wind Speed Wind Dir Waves Ship Positions

Sea Voyager

Last reported at 2016-Sep-25 21:33 UTC. Time now 2016-Sep-25 22:33 UTC.
Position N 36°35' W 122°38'.

Length 243 m; draft 10.9 m.

Type: Ship (hazmat cat A). MMSI: 538003439.

Date/timePositionNaut miles runAvg speedWind from/ knotsBaromVisibWave heightAir tempDewpointWater temp
2016-Sep-25 21:33N 36°35' W 122°38'4812.1
2016-Sep-25 17:33N 35°53' W 122°09'1212.1
2016-Sep-25 16:34N 35°42' W 122°02'1212.1
2016-Sep-25 15:33N 35°32' W 121°55'9812.2
2016-Sep-25 07:33N 34°05' W 120°60'3612.0
2016-Sep-25 04:33N 33°33' W 120°39'4812.0
2016-Sep-25 00:33N 32°51' W 120°12'2411.9
2016-Sep-24 22:31N 32°29' W 119°59'1212.2
2016-Sep-24 21:33N 32°19' W 119°52'2412.2
2016-Sep-24 19:33N 32°00' W 119°34'1212.2
2016-Sep-24 18:33N 31°51' W 119°25'1212.1
2016-Sep-24 17:33N 31°42' W 119°15'1211.9
2016-Sep-24 16:33N 31°33' W 119°06'8 4.1
2016-Sep-24 14:33N 31°28' W 118°59'2 1.2
2016-Sep-24 12:33N 31°26' W 119°01'5 2.3
2016-Sep-24 10:33N 31°29' W 119°06'2 1.8
2016-Sep-24 09:33N 31°30' W 119°07'16 2.7
2016-Sep-24 03:33N 31°43' W 119°19'3 2.9
2016-Sep-24 02:33N 31°45' W 119°21'3 2.8
2016-Sep-24 01:33N 31°47' W 119°23'2 2.5
2016-Sep-24 00:33N 31°49' W 119°25'17 3.4
2016-Sep-23 19:33N 32°03' W 119°36'222 5.7
2016-Sep-22 04:28N 35°15' W 121°49'1112.2
2016-Sep-22 03:32N 35°25' W 121°56'3712.4
2016-Sep-22 00:34N 35°58' W 122°18'1212.3
2016-Sep-21 23:34N 36°08' W 122°25'1312.4
2016-Sep-21 22:33N 36°19' W 122°32'3712.2
2016-Sep-21 19:31N 36°53' W 122°51'3612.1
2016-Sep-21 16:32N 37°27' W 123°08'59 4.4
2016-Sep-21 03:15N 38°02' W 122°08'0 0.0
2016-Sep-21 02:33N 38°02' W 122°08'  
2016-Sep-18 19:33N 37°45' W 122°21'1 0.2
2016-Sep-18 15:32N 37°44' W 122°20'0 0.1
2016-Sep-18 14:32N 37°44' W 122°20'0 0.1
2016-Sep-18 10:32N 37°44' W 122°20'0 0.1
2016-Sep-18 09:32N 37°44' W 122°20'0 0.0
2016-Sep-18 02:32N 37°44' W 122°20'0 0.0
2016-Sep-18 01:29N 37°44' W 122°20'0 0.0
2016-Sep-18 00:32N 37°44' W 122°20'0 0.0
2016-Sep-17 22:32N 37°44' W 122°20'0 0.1
2016-Sep-17 21:32N 37°44' W 122°20'0 0.2
2016-Sep-17 20:32N 37°44' W 122°20'0 0.0
2016-Sep-17 19:14N 37°44' W 122°20'0 0.0
2016-Sep-17 13:32N 37°44' W 122°20'0 0.0
2016-Sep-17 12:32N 37°44' W 122°20'0 0.0
2016-Sep-17 10:32N 37°44' W 122°20'0 0.0
2016-Sep-17 09:32N 37°44' W 122°20'0 0.2
2016-Sep-17 08:32N 37°44' W 122°20'0 0.1
2016-Sep-17 07:32N 37°44' W 122°20'0 0.0
2016-Sep-17 05:32N 37°44' W 122°20'0 0.0
2016-Sep-17 04:32N 37°44' W 122°20'0 0.1
2016-Sep-17 00:32N 37°44' W 122°20'0 0.0
2016-Sep-16 17:32N 37°44' W 122°20'0 0.0
2016-Sep-16 15:32N 37°44' W 122°20'0 0.1
2016-Sep-16 12:32N 37°44' W 122°20'0 0.0
2016-Sep-16 09:32N 37°44' W 122°20'0 0.1
2016-Sep-16 07:32N 37°44' W 122°20'0 0.0
2016-Sep-16 03:32N 37°44' W 122°20'0 0.0
2016-Sep-16 02:32N 37°44' W 122°20'0 0.1
2016-Sep-16 00:32N 37°44' W 122°20'0 0.0
2016-Sep-15 22:32N 37°44' W 122°20'  
Track history (hours):
 
Tides and Currents Weather Stations Pressure Air Temp Water Temp Dewpoint Dewpoint Depression Visibility Wind Speed Wind Dir Waves Ship Positions

Sea Voyager

Last reported at 2016-Sep-25 21:33 UTC. Time now 2016-Sep-25 22:33 UTC.
Position N 36°35' W 122°38'.

Length 243 m; draft 10.9 m.

Type: Ship (hazmat cat A). MMSI: 538003439.

Date/timePositionNaut miles runAvg speedWind from/ knotsBaromVisibWave heightAir tempDewpointWater temp
2016-Sep-25 21:33N 36°35' W 122°38'4812.1
2016-Sep-25 17:33N 35°53' W 122°09'1212.1
2016-Sep-25 16:34N 35°42' W 122°02'1212.1
2016-Sep-25 15:33N 35°32' W 121°55'9812.2
2016-Sep-25 07:33N 34°05' W 120°60'3612.0
2016-Sep-25 04:33N 33°33' W 120°39'4812.0
2016-Sep-25 00:33N 32°51' W 120°12'2411.9
2016-Sep-24 22:31N 32°29' W 119°59'1212.2
2016-Sep-24 21:33N 32°19' W 119°52'2412.2
2016-Sep-24 19:33N 32°00' W 119°34'1212.2
2016-Sep-24 18:33N 31°51' W 119°25'1212.1
2016-Sep-24 17:33N 31°42' W 119°15'1211.9
2016-Sep-24 16:33N 31°33' W 119°06'8 4.1
2016-Sep-24 14:33N 31°28' W 118°59'2 1.2
2016-Sep-24 12:33N 31°26' W 119°01'5 2.3
2016-Sep-24 10:33N 31°29' W 119°06'2 1.8
2016-Sep-24 09:33N 31°30' W 119°07'16 2.7
2016-Sep-24 03:33N 31°43' W 119°19'3 2.9
2016-Sep-24 02:33N 31°45' W 119°21'3 2.8
2016-Sep-24 01:33N 31°47' W 119°23'2 2.5
2016-Sep-24 00:33N 31°49' W 119°25'17 3.4
2016-Sep-23 19:33N 32°03' W 119°36'222 5.7
2016-Sep-22 04:28N 35°15' W 121°49'1112.2
2016-Sep-22 03:32N 35°25' W 121°56'3712.4
2016-Sep-22 00:34N 35°58' W 122°18'1212.3
2016-Sep-21 23:34N 36°08' W 122°25'1312.4
2016-Sep-21 22:33N 36°19' W 122°32'3712.2
2016-Sep-21 19:31N 36°53' W 122°51'3612.1
2016-Sep-21 16:32N 37°27' W 123°08'59 4.4
2016-Sep-21 03:15N 38°02' W 122°08'0 0.0
2016-Sep-21 02:33N 38°02' W 122°08'  
2016-Sep-18 19:33N 37°45' W 122°21'1 0.2
2016-Sep-18 15:32N 37°44' W 122°20'0 0.1
2016-Sep-18 14:32N 37°44' W 122°20'0 0.1
2016-Sep-18 10:32N 37°44' W 122°20'0 0.1
2016-Sep-18 09:32N 37°44' W 122°20'0 0.0
2016-Sep-18 02:32N 37°44' W 122°20'0 0.0
2016-Sep-18 01:29N 37°44' W 122°20'0 0.0
2016-Sep-18 00:32N 37°44' W 122°20'0 0.0
2016-Sep-17 22:32N 37°44' W 122°20'0 0.1
2016-Sep-17 21:32N 37°44' W 122°20'0 0.2
2016-Sep-17 20:32N 37°44' W 122°20'0 0.0
2016-Sep-17 19:14N 37°44' W 122°20'0 0.0
2016-Sep-17 13:32N 37°44' W 122°20'0 0.0
2016-Sep-17 12:32N 37°44' W 122°20'0 0.0
2016-Sep-17 10:32N 37°44' W 122°20'0 0.0
2016-Sep-17 09:32N 37°44' W 122°20'0 0.2
2016-Sep-17 08:32N 37°44' W 122°20'0 0.1
2016-Sep-17 07:32N 37°44' W 122°20'0 0.0
2016-Sep-17 05:32N 37°44' W 122°20'0 0.0
2016-Sep-17 04:32N 37°44' W 122°20'0 0.1
2016-Sep-17 00:32N 37°44' W 122°20'0 0.0
2016-Sep-16 17:32N 37°44' W 122°20'0 0.0
2016-Sep-16 15:32N 37°44' W 122°20'0 0.1
2016-Sep-16 12:32N 37°44' W 122°20'0 0.0
2016-Sep-16 09:32N 37°44' W 122°20'0 0.1
2016-Sep-16 07:32N 37°44' W 122°20'0 0.0
2016-Sep-16 03:32N 37°44' W 122°20'0 0.0
2016-Sep-16 02:32N 37°44' W 122°20'0 0.1
2016-Sep-16 00:32N 37°44' W 122°20'0 0.0
2016-Sep-15 22:32N 37°44' W 122°20'  

Dump ship's entire track history